createdAt,value
2019-05-07T00:00:36.643Z,0.00
2019-05-07T00:01:36.611Z,0.00
2019-05-07T00:02:36.582Z,0.00
2019-05-07T00:03:36.550Z,0.00
2019-05-07T00:04:36.522Z,0.00
2019-05-07T00:05:36.491Z,0.00
2019-05-07T00:06:36.462Z,0.00
2019-05-07T00:07:36.433Z,0.00
2019-05-07T00:08:36.402Z,0.00
2019-05-07T00:09:36.371Z,0.00
2019-05-07T00:10:36.343Z,0.00
2019-05-07T00:11:36.314Z,0.00
2019-05-07T00:12:36.284Z,0.00
2019-05-07T00:13:36.254Z,0.00
2019-05-07T00:14:36.222Z,0.00
2019-05-07T00:15:36.194Z,0.00
2019-05-07T00:16:36.164Z,0.00
2019-05-07T00:17:36.133Z,0.00
2019-05-07T00:18:36.104Z,0.00
2019-05-07T00:19:36.075Z,0.00
2019-05-07T00:20:36.045Z,0.00
2019-05-07T00:21:36.014Z,0.00
2019-05-07T00:22:35.984Z,0.00
2019-05-07T00:23:35.955Z,0.00
2019-05-07T00:24:35.928Z,0.00
2019-05-07T00:25:35.894Z,0.00
2019-05-07T00:26:35.864Z,0.00
2019-05-07T00:27:35.834Z,0.00
2019-05-07T00:28:35.805Z,0.00
2019-05-07T00:29:35.775Z,0.00
2019-05-07T00:30:35.744Z,0.00
2019-05-07T00:31:35.715Z,0.00
2019-05-07T00:32:35.688Z,0.00
2019-05-07T00:33:35.654Z,0.00
2019-05-07T00:34:35.625Z,0.00
2019-05-07T00:35:35.597Z,0.00
2019-05-07T00:36:35.566Z,0.00
2019-05-07T00:37:35.537Z,0.00
2019-05-07T00:38:35.506Z,0.00
2019-05-07T00:39:35.491Z,0.00
2019-05-07T00:40:35.445Z,0.00
2019-05-07T00:41:35.420Z,0.00
2019-05-07T00:42:35.385Z,0.00
2019-05-07T00:43:35.355Z,0.00
2019-05-07T00:44:35.326Z,0.00
2019-05-07T00:45:35.295Z,0.00
2019-05-07T00:46:35.264Z,0.00
2019-05-07T00:47:35.236Z,0.00
2019-05-07T00:48:35.205Z,0.00
2019-05-07T00:49:35.175Z,0.00
2019-05-07T00:50:35.145Z,0.00
2019-05-07T00:51:35.115Z,0.00
2019-05-07T00:52:35.088Z,0.00
2019-05-07T00:53:35.054Z,0.00
2019-05-07T00:54:35.025Z,0.00
2019-05-07T00:55:34.994Z,0.00
2019-05-07T00:56:34.965Z,0.00
2019-05-07T00:57:34.934Z,0.00
2019-05-07T00:58:34.904Z,0.00
2019-05-07T00:59:34.873Z,0.00
2019-05-07T01:00:34.848Z,0.00
2019-05-07T01:01:34.819Z,0.00
2019-05-07T01:02:34.783Z,0.00
2019-05-07T01:03:34.754Z,0.00
2019-05-07T01:04:34.724Z,0.00
2019-05-07T01:05:34.692Z,0.00
2019-05-07T01:06:34.666Z,0.00
2019-05-07T01:07:34.634Z,0.00
2019-05-07T01:08:34.603Z,0.00
2019-05-07T01:09:34.572Z,0.00
2019-05-07T01:10:34.542Z,0.00
2019-05-07T01:11:34.512Z,0.00
2019-05-07T01:12:34.482Z,0.00
2019-05-07T01:13:34.452Z,0.00
2019-05-07T01:14:34.427Z,0.00
2019-05-07T01:15:34.841Z,0.00
2019-05-07T01:16:34.363Z,0.00
2019-05-07T01:17:34.332Z,0.00
2019-05-07T01:18:34.300Z,0.00
2019-05-07T01:19:34.271Z,0.00
2019-05-07T01:20:34.241Z,0.00
2019-05-07T01:21:34.210Z,0.00
2019-05-07T01:22:34.180Z,0.00
2019-05-07T01:23:34.150Z,0.00
2019-05-07T01:24:34.122Z,0.00
2019-05-07T01:25:34.089Z,0.00
2019-05-07T01:26:34.064Z,0.00
2019-05-07T01:27:34.027Z,0.00
2019-05-07T01:28:33.998Z,0.00
2019-05-07T01:29:33.966Z,0.00
2019-05-07T01:30:33.938Z,0.00
2019-05-07T01:31:33.905Z,0.00
2019-05-07T01:32:33.878Z,0.00
2019-05-07T01:33:33.843Z,0.00
2019-05-07T01:34:33.816Z,0.00
2019-05-07T01:35:33.783Z,0.00
2019-05-07T01:36:33.754Z,0.00
2019-05-07T01:37:33.722Z,0.00
2019-05-07T01:38:33.694Z,0.00
2019-05-07T01:39:33.662Z,0.00
2019-05-07T01:40:33.631Z,0.00
2019-05-07T01:41:33.598Z,0.00
2019-05-07T01:42:36.466Z,0.00
2019-05-07T01:43:33.536Z,0.00
2019-05-07T01:44:33.510Z,0.00
2019-05-07T01:45:45.382Z,0.00
2019-05-07T01:46:33.446Z,0.00
2019-05-07T01:47:33.421Z,0.00
2019-05-07T01:48:33.385Z,0.00
2019-05-07T01:49:33.357Z,0.00
2019-05-07T01:50:33.321Z,0.00
2019-05-07T01:51:33.293Z,0.00
2019-05-07T01:52:33.346Z,0.00
2019-05-07T01:53:33.226Z,0.00
2019-05-07T01:54:33.589Z,0.00
2019-05-07T01:55:33.165Z,0.00
2019-05-07T01:56:33.289Z,0.00
2019-05-07T01:57:33.103Z,0.00
2019-05-07T01:58:33.432Z,0.00
2019-05-07T01:59:33.040Z,0.00
2019-05-07T02:00:33.009Z,0.00
2019-05-07T02:01:35.796Z,0.00
2019-05-07T02:02:32.944Z,0.00
2019-05-07T02:03:32.981Z,0.00
2019-05-07T02:04:32.885Z,0.00
2019-05-07T02:05:32.851Z,0.00
2019-05-07T02:06:32.875Z,0.00
2019-05-07T02:07:33.475Z,0.00
2019-05-07T02:08:32.908Z,0.00
2019-05-07T02:09:34.066Z,0.00
2019-05-07T02:10:32.697Z,0.00
2019-05-07T02:11:32.849Z,0.00
2019-05-07T02:12:32.633Z,0.00
2019-05-07T02:13:33.846Z,0.00
2019-05-07T02:14:33.142Z,0.00
2019-05-07T02:15:32.537Z,0.00
2019-05-07T02:16:32.751Z,0.00
2019-05-07T02:17:32.474Z,0.00
2019-05-07T02:18:32.701Z,0.00
2019-05-07T02:19:33.036Z,0.00
2019-05-07T02:20:32.426Z,0.00
2019-05-07T02:21:32.942Z,0.00
2019-05-07T02:22:32.316Z,0.00
2019-05-07T02:23:33.021Z,0.00
2019-05-07T02:24:33.964Z,0.00
2019-05-07T02:25:32.727Z,0.00
2019-05-07T02:26:32.311Z,0.00
2019-05-07T02:27:32.797Z,0.00
2019-05-07T02:28:32.989Z,0.00
2019-05-07T02:29:32.563Z,0.00
2019-05-07T02:30:35.106Z,0.00
2019-05-07T02:31:33.653Z,0.00
2019-05-07T02:32:33.408Z,0.00
2019-05-07T02:33:34.888Z,0.00
2019-05-07T02:34:34.236Z,0.00
2019-05-07T02:35:33.265Z,0.00
2019-05-07T02:36:33.990Z,0.00
2019-05-07T02:37:42.294Z,0.00
2019-05-07T02:38:33.971Z,0.00
2019-05-07T02:39:33.286Z,0.00
2019-05-07T02:40:33.916Z,0.00
2019-05-07T02:41:33.044Z,0.00
2019-05-07T02:42:33.641Z,0.00
2019-05-07T02:43:33.738Z,0.00
2019-05-07T02:44:32.469Z,0.00
2019-05-07T02:45:33.185Z,0.00
2019-05-07T02:46:35.778Z,0.00
2019-05-07T02:47:33.085Z,0.00
2019-05-07T02:48:33.254Z,0.00
2019-05-07T02:49:32.693Z,0.00
2019-05-07T02:50:32.999Z,0.00
2019-05-07T02:51:33.458Z,0.00
2019-05-07T02:52:32.449Z,0.00
2019-05-07T02:53:33.791Z,0.00
2019-05-07T02:54:32.787Z,0.00
2019-05-07T02:55:33.699Z,0.00
2019-05-07T02:56:33.305Z,0.00
2019-05-07T02:57:34.082Z,0.00
2019-05-07T02:58:33.079Z,0.00
2019-05-07T02:59:33.684Z,0.00
2019-05-07T03:00:33.332Z,0.00
2019-05-07T03:01:33.640Z,0.00
2019-05-07T03:02:33.210Z,0.00
2019-05-07T03:03:33.450Z,0.00
2019-05-07T03:04:33.396Z,0.00
2019-05-07T03:05:30.953Z,0.00
2019-05-07T03:06:33.586Z,0.00
2019-05-07T03:07:33.566Z,0.00
2019-05-07T03:08:33.098Z,0.00
2019-05-07T03:09:32.859Z,0.00
2019-05-07T03:10:33.629Z,0.00
2019-05-07T03:11:33.290Z,0.00
2019-05-07T03:12:33.392Z,0.00
2019-05-07T03:13:33.375Z,0.00
2019-05-07T03:14:32.387Z,0.00
2019-05-07T03:15:33.166Z,0.00
2019-05-07T03:16:40.046Z,0.00
2019-05-07T03:17:33.224Z,0.00
2019-05-07T03:18:33.417Z,0.00
2019-05-07T03:19:32.954Z,5.63
2019-05-07T03:20:33.258Z,5.63
2019-05-07T03:21:32.789Z,5.63
2019-05-07T03:22:33.493Z,5.63
2019-05-07T03:23:30.361Z,5.63
2019-05-07T03:24:33.981Z,5.63
2019-05-07T03:25:33.536Z,5.63
2019-05-07T03:26:30.268Z,11.25
2019-05-07T03:27:33.801Z,11.25
2019-05-07T03:28:30.198Z,11.25
2019-05-07T03:29:33.000Z,11.25
2019-05-07T03:30:30.154Z,11.25
2019-05-07T03:31:35.580Z,16.88
2019-05-07T03:32:36.831Z,16.88
2019-05-07T03:33:30.046Z,16.88
2019-05-07T03:34:30.013Z,16.88
2019-05-07T03:35:29.970Z,22.50
2019-05-07T03:36:35.073Z,22.50
2019-05-07T03:37:35.777Z,22.50
2019-05-07T03:38:29.872Z,22.50
2019-05-07T03:39:29.850Z,28.13
2019-05-07T03:40:32.681Z,28.13
2019-05-07T03:41:29.775Z,28.13
2019-05-07T03:42:29.744Z,33.75
2019-05-07T03:43:32.317Z,33.75
2019-05-07T03:44:29.680Z,33.75
2019-05-07T03:45:29.644Z,39.38
2019-05-07T03:46:29.610Z,39.38
2019-05-07T03:47:32.914Z,39.38
2019-05-07T03:48:29.545Z,45.00
2019-05-07T03:49:29.513Z,45.00
2019-05-07T03:50:29.485Z,45.00
2019-05-07T03:51:29.445Z,50.63
2019-05-07T03:52:29.431Z,50.63
2019-05-07T03:53:29.381Z,56.25
2019-05-07T03:54:29.387Z,56.25
2019-05-07T03:55:29.316Z,56.25
2019-05-07T03:56:29.285Z,61.88
2019-05-07T03:57:29.259Z,61.88
2019-05-07T03:58:29.227Z,67.50
2019-05-07T03:59:29.184Z,67.50
2019-05-07T04:00:29.154Z,73.13
2019-05-07T04:01:29.119Z,73.13
2019-05-07T04:02:29.090Z,73.13
2019-05-07T04:03:29.057Z,78.75
2019-05-07T04:04:29.024Z,78.75
2019-05-07T04:05:28.990Z,84.38
2019-05-07T04:06:28.957Z,84.38
2019-05-07T04:07:28.927Z,90.00
2019-05-07T04:08:28.892Z,90.00
2019-05-07T04:09:28.882Z,95.63
2019-05-07T04:10:28.832Z,95.63
2019-05-07T04:11:28.797Z,95.63
2019-05-07T04:12:28.761Z,101.25
2019-05-07T04:13:28.728Z,101.25
2019-05-07T04:14:28.698Z,106.88
2019-05-07T04:15:28.663Z,106.88
2019-05-07T04:16:28.633Z,112.50
2019-05-07T04:17:28.601Z,112.50
2019-05-07T04:18:28.566Z,118.13
2019-05-07T04:19:28.534Z,118.13
2019-05-07T04:20:28.502Z,123.75
2019-05-07T04:21:28.479Z,123.75
2019-05-07T04:22:29.240Z,123.75
2019-05-07T04:23:28.405Z,129.38
2019-05-07T04:24:28.372Z,129.38
2019-05-07T04:25:28.341Z,135.00
2019-05-07T04:26:28.307Z,135.00
2019-05-07T04:27:28.277Z,135.00
2019-05-07T04:28:28.245Z,140.63
2019-05-07T04:29:28.210Z,140.63
2019-05-07T04:30:28.177Z,140.63
2019-05-07T04:31:28.147Z,140.63
2019-05-07T04:32:28.115Z,146.25
2019-05-07T04:33:28.080Z,146.25
2019-05-07T04:34:28.049Z,151.88
2019-05-07T04:35:28.021Z,151.88
2019-05-07T04:36:28.011Z,157.50
2019-05-07T04:37:27.950Z,157.50
2019-05-07T04:38:27.926Z,157.50
2019-05-07T04:39:27.886Z,163.13
2019-05-07T04:40:27.857Z,168.75
2019-05-07T04:41:27.833Z,168.75
2019-05-07T04:42:27.792Z,168.75
2019-05-07T04:43:27.761Z,174.38
2019-05-07T04:44:27.726Z,174.38
2019-05-07T04:45:27.693Z,185.63
2019-05-07T04:46:27.662Z,185.63
2019-05-07T04:47:38.398Z,185.63
2019-05-07T04:48:27.608Z,185.63
2019-05-07T04:49:27.569Z,185.63
2019-05-07T04:50:39.474Z,191.25
2019-05-07T04:51:27.506Z,191.25
2019-05-07T04:52:27.473Z,191.25
2019-05-07T04:53:27.438Z,191.25
2019-05-07T04:54:27.406Z,196.88
2019-05-07T04:55:27.378Z,196.88
2019-05-07T04:56:27.350Z,196.88
2019-05-07T04:57:27.407Z,202.50
2019-05-07T04:58:27.311Z,202.50
2019-05-07T04:59:27.249Z,213.75
2019-05-07T05:00:27.217Z,208.13
2019-05-07T05:01:27.185Z,208.13
2019-05-07T05:02:27.153Z,213.75
2019-05-07T05:03:27.124Z,219.38
2019-05-07T05:04:30.751Z,219.38
2019-05-07T05:05:27.059Z,219.38
2019-05-07T05:06:27.028Z,219.38
2019-05-07T05:07:26.995Z,219.38
2019-05-07T05:08:26.963Z,225.00
2019-05-07T05:09:26.964Z,230.63
2019-05-07T05:10:26.900Z,230.63
2019-05-07T05:11:26.870Z,230.63
2019-05-07T05:12:26.840Z,230.63
2019-05-07T05:13:26.808Z,236.25
2019-05-07T05:14:26.776Z,241.88
2019-05-07T05:15:26.745Z,247.50
2019-05-07T05:16:26.715Z,253.13
2019-05-07T05:17:26.682Z,258.75
2019-05-07T05:18:26.651Z,275.63
2019-05-07T05:19:26.621Z,270.00
2019-05-07T05:20:26.589Z,281.25
2019-05-07T05:21:26.556Z,331.88
2019-05-07T05:22:26.527Z,371.25
2019-05-07T05:23:26.495Z,315.00
2019-05-07T05:24:26.465Z,365.63
2019-05-07T05:25:26.433Z,517.50
2019-05-07T05:26:26.407Z,618.75
2019-05-07T05:27:26.373Z,646.88
2019-05-07T05:28:26.343Z,652.50
2019-05-07T05:29:26.314Z,675.00
2019-05-07T05:30:26.283Z,697.50
2019-05-07T05:31:26.253Z,686.25
2019-05-07T05:32:26.225Z,686.25
2019-05-07T05:33:26.194Z,675.00
2019-05-07T05:34:26.166Z,680.63
2019-05-07T05:35:26.140Z,691.88
2019-05-07T05:36:26.112Z,708.75
2019-05-07T05:37:26.085Z,736.88
2019-05-07T05:38:26.058Z,770.63
2019-05-07T05:39:26.035Z,798.75
2019-05-07T05:40:26.006Z,821.25
2019-05-07T05:41:25.982Z,810.00
2019-05-07T05:42:25.952Z,787.50
2019-05-07T05:43:25.927Z,759.38
2019-05-07T05:44:25.902Z,759.38
2019-05-07T05:45:25.902Z,776.25
2019-05-07T05:46:25.854Z,815.63
2019-05-07T05:47:25.831Z,832.50
2019-05-07T05:48:25.806Z,838.13
2019-05-07T05:49:25.780Z,821.25
2019-05-07T05:50:25.756Z,832.50
2019-05-07T05:51:25.733Z,832.50
2019-05-07T05:52:25.710Z,860.63
2019-05-07T05:53:25.685Z,883.13
2019-05-07T05:54:25.663Z,894.38
2019-05-07T05:55:25.640Z,905.63
2019-05-07T05:56:25.619Z,905.63
2019-05-07T05:57:25.594Z,939.38
2019-05-07T05:58:25.573Z,973.13
2019-05-07T05:59:37.077Z,995.63
2019-05-07T06:00:25.528Z,990.00
2019-05-07T06:01:25.505Z,978.75
2019-05-07T06:02:25.484Z,950.63
2019-05-07T06:03:25.461Z,911.25
2019-05-07T06:04:25.438Z,900.00
2019-05-07T06:05:25.416Z,911.25
2019-05-07T06:06:25.394Z,945.00
2019-05-07T06:07:25.374Z,990.00
2019-05-07T06:08:25.352Z,1040.63
2019-05-07T06:09:25.328Z,1080.00
2019-05-07T06:10:25.307Z,1113.75
2019-05-07T06:11:25.286Z,1113.75
2019-05-07T06:12:25.265Z,1113.75
2019-05-07T06:13:25.244Z,1091.25
2019-05-07T06:14:25.223Z,1074.38
2019-05-07T06:15:25.206Z,1046.25
2019-05-07T06:16:25.181Z,1018.13
2019-05-07T06:17:25.162Z,1012.50
2019-05-07T06:18:25.137Z,1023.75
2019-05-07T06:19:25.117Z,1046.25
2019-05-07T06:20:25.099Z,1085.63
2019-05-07T06:21:25.081Z,1130.63
2019-05-07T06:22:25.056Z,1175.63
2019-05-07T06:23:25.037Z,1209.38
2019-05-07T06:24:25.014Z,1198.13
2019-05-07T06:25:25.461Z,1170.00
2019-05-07T06:26:24.973Z,1158.75
2019-05-07T06:27:24.952Z,1153.13
2019-05-07T06:28:24.931Z,1153.13
2019-05-07T06:29:24.911Z,1158.75
2019-05-07T06:30:24.891Z,1192.50
2019-05-07T06:31:24.871Z,1215.00
2019-05-07T06:32:24.851Z,1254.38
2019-05-07T06:33:24.830Z,1282.50
2019-05-07T06:34:24.811Z,1299.38
2019-05-07T06:35:24.792Z,1316.25
2019-05-07T06:36:24.769Z,1310.63
2019-05-07T06:37:24.748Z,1310.63
2019-05-07T06:38:24.729Z,1299.38
2019-05-07T06:39:24.709Z,1282.50
2019-05-07T06:40:29.159Z,1276.88
2019-05-07T06:41:24.668Z,1288.13
2019-05-07T06:42:24.649Z,1299.38
2019-05-07T06:43:24.628Z,1321.88
2019-05-07T06:44:24.609Z,1321.88
2019-05-07T06:45:24.587Z,1316.25
2019-05-07T06:46:24.572Z,1316.25
2019-05-07T06:47:24.547Z,1327.50
2019-05-07T06:48:37.668Z,1338.75
2019-05-07T06:49:24.509Z,1355.63
2019-05-07T06:50:24.486Z,1378.13
2019-05-07T06:51:24.466Z,1406.25
2019-05-07T06:52:24.458Z,1423.13
2019-05-07T06:53:24.427Z,1428.75
2019-05-07T06:54:24.407Z,1434.38
2019-05-07T06:55:24.387Z,1445.63
2019-05-07T06:56:24.367Z,1445.63
2019-05-07T06:57:24.349Z,1451.25
2019-05-07T06:58:24.328Z,1473.75
2019-05-07T06:59:24.307Z,1507.50
2019-05-07T07:00:24.288Z,1513.13
2019-05-07T07:01:24.270Z,1501.88
2019-05-07T07:02:24.250Z,1473.75
2019-05-07T07:03:24.229Z,1428.75
2019-05-07T07:04:24.210Z,1383.75
2019-05-07T07:05:25.925Z,1378.13
2019-05-07T07:06:24.170Z,1395.00
2019-05-07T07:07:31.018Z,1445.63
2019-05-07T07:08:24.132Z,1496.25
2019-05-07T07:09:24.115Z,1524.38
2019-05-07T07:10:24.093Z,1541.25
2019-05-07T07:11:24.074Z,1580.63
2019-05-07T07:12:25.993Z,1614.38
2019-05-07T07:13:24.040Z,1659.38
2019-05-07T07:14:24.015Z,1676.25
2019-05-07T07:15:24.000Z,1659.38
2019-05-07T07:16:23.977Z,1710.00
2019-05-07T07:17:23.957Z,1704.38
2019-05-07T07:18:23.938Z,1721.25
2019-05-07T07:19:23.923Z,1721.25
2019-05-07T07:20:23.902Z,1800.00
2019-05-07T07:21:23.881Z,1901.25
2019-05-07T07:22:23.862Z,1957.50
2019-05-07T07:23:23.844Z,2070.00
2019-05-07T07:24:23.826Z,2115.00
2019-05-07T07:25:23.807Z,2098.13
2019-05-07T07:26:23.788Z,2070.00
2019-05-07T07:27:23.769Z,736.88
2019-05-07T07:28:23.749Z,596.25
2019-05-07T07:29:23.730Z,585.00
2019-05-07T07:30:23.710Z,618.75
2019-05-07T07:31:26.203Z,1704.38
2019-05-07T07:32:23.671Z,725.63
2019-05-07T07:33:23.650Z,703.13
2019-05-07T07:34:23.630Z,753.75
2019-05-07T07:35:23.615Z,1068.75
2019-05-07T07:36:23.593Z,2092.50
2019-05-07T07:37:23.569Z,2013.75
2019-05-07T07:38:23.547Z,2165.63
2019-05-07T07:39:23.527Z,2176.88
2019-05-07T07:40:23.507Z,2221.88
2019-05-07T07:41:23.485Z,2255.63
2019-05-07T07:42:23.466Z,2289.38
2019-05-07T07:43:23.447Z,2255.63
2019-05-07T07:44:23.426Z,2210.63
2019-05-07T07:45:23.419Z,2182.50
2019-05-07T07:46:23.391Z,720.00
2019-05-07T07:47:23.365Z,607.50
2019-05-07T07:48:24.930Z,618.75
2019-05-07T07:49:23.323Z,646.88
2019-05-07T07:50:23.306Z,703.13
2019-05-07T07:51:37.927Z,2266.88
2019-05-07T07:52:23.265Z,2317.50
2019-05-07T07:53:23.242Z,1158.75
2019-05-07T07:54:23.222Z,860.63
2019-05-07T07:55:23.201Z,2317.50
2019-05-07T07:56:23.297Z,2295.00
2019-05-07T07:57:23.158Z,2278.13
2019-05-07T07:58:23.138Z,2278.13
2019-05-07T07:59:23.118Z,1839.38
2019-05-07T08:00:23.424Z,725.63
2019-05-07T08:01:23.076Z,669.38
2019-05-07T08:02:23.179Z,703.13
2019-05-07T08:03:23.036Z,2188.13
2019-05-07T08:04:23.021Z,2120.63
2019-05-07T08:05:22.996Z,731.25
2019-05-07T08:06:22.974Z,495.00
2019-05-07T08:07:23.051Z,511.88
2019-05-07T08:08:22.936Z,540.00
2019-05-07T08:09:25.768Z,568.13
2019-05-07T08:10:22.891Z,590.63
2019-05-07T08:11:22.869Z,630.00
2019-05-07T08:12:22.849Z,691.88
2019-05-07T08:13:23.033Z,770.63
2019-05-07T08:14:22.804Z,2463.75
2019-05-07T08:15:24.678Z,2435.63
2019-05-07T08:16:22.761Z,2401.88
2019-05-07T08:17:22.745Z,2351.25
2019-05-07T08:18:22.754Z,2221.88
2019-05-07T08:19:25.107Z,528.75
2019-05-07T08:20:22.676Z,461.25
2019-05-07T08:21:22.953Z,427.50
2019-05-07T08:22:22.853Z,399.38
2019-05-07T08:23:22.751Z,382.50
2019-05-07T08:24:22.668Z,382.50
2019-05-07T08:25:22.566Z,399.38
2019-05-07T08:26:22.550Z,427.50
2019-05-07T08:27:22.521Z,466.88
2019-05-07T08:28:23.390Z,517.50
2019-05-07T08:29:22.579Z,2323.13
2019-05-07T08:30:22.454Z,2368.13
2019-05-07T08:31:22.648Z,2430.00
2019-05-07T08:32:22.449Z,2508.75
2019-05-07T08:33:22.495Z,2621.25
2019-05-07T08:34:22.370Z,2694.38
2019-05-07T08:35:22.340Z,2705.63
2019-05-07T08:36:22.710Z,2671.88
2019-05-07T08:37:24.458Z,2559.38
2019-05-07T08:38:22.274Z,2576.25
2019-05-07T08:39:25.047Z,1608.75
2019-05-07T08:40:22.232Z,1288.13
2019-05-07T08:41:22.566Z,613.13
2019-05-07T08:42:22.800Z,551.25
2019-05-07T08:43:22.170Z,551.25
2019-05-07T08:44:22.377Z,551.25
2019-05-07T08:45:24.869Z,545.63
2019-05-07T08:46:22.380Z,551.25
2019-05-07T08:47:22.813Z,2103.75
2019-05-07T08:48:22.065Z,2452.50
2019-05-07T08:49:33.318Z,2463.75
2019-05-07T08:50:22.313Z,2463.75
2019-05-07T08:51:22.379Z,2452.50
2019-05-07T08:52:23.391Z,2503.13
2019-05-07T08:53:22.506Z,2508.75
2019-05-07T08:54:22.685Z,2418.75
2019-05-07T08:55:21.914Z,2593.13
2019-05-07T08:56:22.469Z,2615.63
2019-05-07T08:57:22.799Z,2480.63
2019-05-07T08:58:22.401Z,2604.38
2019-05-07T08:59:22.355Z,2649.38
2019-05-07T09:00:22.356Z,2345.63
2019-05-07T09:01:21.883Z,725.63
2019-05-07T09:02:22.355Z,815.63
2019-05-07T09:03:24.542Z,776.25
2019-05-07T09:04:22.026Z,798.75
2019-05-07T09:05:22.077Z,798.75
2019-05-07T09:06:22.097Z,781.88
2019-05-07T09:07:22.066Z,691.88
2019-05-07T09:08:21.837Z,635.63
2019-05-07T09:09:22.243Z,630.00
2019-05-07T09:10:21.915Z,646.88
2019-05-07T09:11:23.046Z,2632.50
2019-05-07T09:12:22.994Z,2621.25
2019-05-07T09:13:22.638Z,2615.63
2019-05-07T09:14:24.455Z,2615.63
2019-05-07T09:15:22.604Z,725.63
2019-05-07T09:16:23.291Z,585.00
2019-05-07T09:17:22.988Z,573.75
2019-05-07T09:18:22.945Z,596.25
2019-05-07T09:19:21.756Z,624.38
2019-05-07T09:20:22.866Z,708.75
2019-05-07T09:21:22.765Z,2581.88
2019-05-07T09:22:22.978Z,2677.50
2019-05-07T09:23:22.298Z,2750.63
2019-05-07T09:24:22.513Z,2761.88
2019-05-07T09:25:22.320Z,2857.50
2019-05-07T09:26:22.133Z,2885.63
2019-05-07T09:27:22.262Z,2857.50
2019-05-07T09:28:22.251Z,2908.13
2019-05-07T09:29:22.178Z,2936.25
2019-05-07T09:30:22.057Z,883.13
2019-05-07T09:31:22.687Z,2846.25
2019-05-07T09:32:22.761Z,2941.88
2019-05-07T09:33:22.704Z,2671.88
2019-05-07T09:34:22.224Z,1051.88
2019-05-07T09:35:21.686Z,2013.75
2019-05-07T09:36:22.777Z,1006.88
2019-05-07T09:37:22.649Z,843.75
2019-05-07T09:38:22.315Z,804.38
2019-05-07T09:39:22.103Z,691.88
2019-05-07T09:40:21.738Z,618.75
2019-05-07T09:41:22.305Z,579.38
2019-05-07T09:42:22.609Z,556.88
2019-05-07T09:43:22.012Z,568.13
2019-05-07T09:44:22.173Z,658.13
2019-05-07T09:45:22.479Z,2666.25
2019-05-07T09:46:22.666Z,2716.88
2019-05-07T09:47:21.886Z,2722.50
2019-05-07T09:48:22.139Z,2801.25
2019-05-07T09:49:22.261Z,1788.75
2019-05-07T09:50:22.013Z,866.25
2019-05-07T09:51:22.582Z,928.13
2019-05-07T09:52:22.663Z,967.50
2019-05-07T09:53:22.713Z,3037.50
2019-05-07T09:54:20.679Z,3009.38
2019-05-07T09:55:20.670Z,961.88
2019-05-07T09:56:22.456Z,939.38
2019-05-07T09:57:30.131Z,984.38
2019-05-07T09:58:35.286Z,826.88
2019-05-07T09:59:21.827Z,804.38
2019-05-07T10:00:22.502Z,765.00
2019-05-07T10:01:20.529Z,736.88
2019-05-07T10:02:22.518Z,736.88
2019-05-07T10:03:22.662Z,759.38
2019-05-07T10:04:22.462Z,798.75
2019-05-07T10:05:20.441Z,810.00
2019-05-07T10:06:20.427Z,793.13
2019-05-07T10:07:22.372Z,787.50
2019-05-07T10:08:20.376Z,1991.25
2019-05-07T10:09:22.206Z,2739.38
2019-05-07T10:10:22.252Z,759.38
2019-05-07T10:11:22.446Z,686.25
2019-05-07T10:12:22.331Z,646.88
2019-05-07T10:13:20.264Z,624.38
2019-05-07T10:14:22.297Z,590.63
2019-05-07T10:15:22.444Z,596.25
2019-05-07T10:16:20.196Z,607.50
2019-05-07T10:17:22.283Z,787.50
2019-05-07T10:18:20.153Z,2683.13
2019-05-07T10:19:22.091Z,2767.50
2019-05-07T10:20:22.667Z,2761.88
2019-05-07T10:21:22.092Z,2778.75
2019-05-07T10:22:20.060Z,2818.13
2019-05-07T10:23:22.396Z,2863.13
2019-05-07T10:24:22.094Z,2913.75
2019-05-07T10:25:22.265Z,2947.50
2019-05-07T10:26:19.972Z,2992.50
2019-05-07T10:27:21.726Z,2998.13
2019-05-07T10:28:19.931Z,3031.88
2019-05-07T10:29:19.908Z,3054.38
2019-05-07T10:30:21.808Z,3110.63
2019-05-07T10:31:19.871Z,3127.50
2019-05-07T10:32:19.845Z,3166.88
2019-05-07T10:33:19.825Z,2930.63
2019-05-07T10:34:19.806Z,3054.38
2019-05-07T10:35:19.785Z,3054.38
2019-05-07T10:36:19.765Z,3065.63
2019-05-07T10:37:19.744Z,3093.75
2019-05-07T10:38:21.733Z,3127.50
2019-05-07T10:39:21.720Z,3133.13
2019-05-07T10:40:19.686Z,3155.63
2019-05-07T10:41:19.667Z,3138.75
2019-05-07T10:42:19.644Z,2581.88
2019-05-07T10:43:22.054Z,2902.50
2019-05-07T10:44:19.604Z,2970.00
2019-05-07T10:45:21.566Z,2019.38
2019-05-07T10:46:19.566Z,793.13
2019-05-07T10:47:19.545Z,798.75
2019-05-07T10:48:19.525Z,770.63
2019-05-07T10:49:19.508Z,776.25
2019-05-07T10:50:34.559Z,1456.88
2019-05-07T10:51:21.689Z,3043.13
2019-05-07T10:52:19.442Z,826.88
2019-05-07T10:53:19.419Z,714.38
2019-05-07T10:54:19.399Z,663.75
2019-05-07T10:55:19.378Z,669.38
2019-05-07T10:56:19.357Z,686.25
2019-05-07T10:57:19.334Z,652.50
2019-05-07T10:58:19.314Z,641.25
2019-05-07T10:59:19.294Z,675.00
2019-05-07T11:00:19.272Z,753.75
2019-05-07T11:01:19.257Z,765.00
2019-05-07T11:02:19.234Z,810.00
2019-05-07T11:03:19.206Z,810.00
2019-05-07T11:04:19.184Z,826.88
2019-05-07T11:05:19.163Z,922.50
2019-05-07T11:06:19.146Z,1490.63
2019-05-07T11:07:19.117Z,2750.63
2019-05-07T11:08:19.097Z,849.38
2019-05-07T11:09:19.073Z,787.50
2019-05-07T11:10:19.053Z,770.63
2019-05-07T11:11:19.029Z,798.75
2019-05-07T11:12:19.007Z,770.63
2019-05-07T11:13:18.985Z,1507.50
2019-05-07T11:14:18.962Z,2823.75
2019-05-07T11:15:18.940Z,2806.88
2019-05-07T11:16:18.919Z,2795.63
2019-05-07T11:17:18.896Z,2795.63
2019-05-07T11:18:18.873Z,1546.88
2019-05-07T11:19:19.143Z,2373.75
2019-05-07T11:20:18.830Z,2812.50
2019-05-07T11:21:18.808Z,2812.50
2019-05-07T11:22:18.787Z,2795.63
2019-05-07T11:23:18.767Z,2829.38
2019-05-07T11:24:18.745Z,2868.75
2019-05-07T11:25:18.723Z,2761.88
2019-05-07T11:26:18.703Z,2745.00
2019-05-07T11:27:18.682Z,2795.63
2019-05-07T11:28:18.661Z,2705.63
2019-05-07T11:29:18.640Z,2733.75
2019-05-07T11:30:18.622Z,2761.88
2019-05-07T11:31:18.602Z,1226.25
2019-05-07T11:32:18.580Z,911.25
2019-05-07T11:33:18.560Z,838.13
2019-05-07T11:34:18.541Z,2525.63
2019-05-07T11:35:18.520Z,2896.88
2019-05-07T11:36:18.500Z,2930.63
2019-05-07T11:37:18.480Z,2925.00
2019-05-07T11:38:21.488Z,2913.75
2019-05-07T11:39:18.441Z,2919.38
2019-05-07T11:40:20.047Z,1726.88
2019-05-07T11:41:18.400Z,1051.88
2019-05-07T11:42:18.382Z,916.88
2019-05-07T11:43:18.362Z,2812.50
2019-05-07T11:44:18.341Z,2829.38
2019-05-07T11:45:18.328Z,2756.25
2019-05-07T11:46:18.302Z,2711.25
2019-05-07T11:47:18.289Z,2666.25
2019-05-07T11:48:18.264Z,2626.88
2019-05-07T11:49:18.254Z,2671.88
2019-05-07T11:50:18.224Z,2694.38
2019-05-07T11:51:18.219Z,2767.50
2019-05-07T11:52:18.185Z,2289.38
2019-05-07T11:53:18.166Z,1209.38
2019-05-07T11:54:18.146Z,1125.00
2019-05-07T11:55:18.127Z,1023.75
2019-05-07T11:56:18.110Z,804.38
2019-05-07T11:57:18.089Z,905.63
2019-05-07T11:58:18.071Z,663.75
2019-05-07T11:59:18.050Z,652.50
2019-05-07T12:00:18.033Z,725.63
2019-05-07T12:01:18.009Z,2143.13
2019-05-07T12:02:17.990Z,2649.38
2019-05-07T12:03:17.979Z,2829.38
2019-05-07T12:04:17.948Z,967.50
2019-05-07T12:05:17.927Z,877.50
2019-05-07T12:06:17.906Z,2430.00
2019-05-07T12:07:17.886Z,2711.25
2019-05-07T12:08:17.867Z,2660.63
2019-05-07T12:09:17.847Z,1563.75
2019-05-07T12:10:17.826Z,2795.63
2019-05-07T12:11:17.803Z,2773.13
2019-05-07T12:12:17.782Z,1158.75
2019-05-07T12:13:17.762Z,720.00
2019-05-07T12:14:28.863Z,675.00
2019-05-07T12:15:17.719Z,618.75
2019-05-07T12:16:17.701Z,601.88
2019-05-07T12:17:17.678Z,596.25
2019-05-07T12:18:17.657Z,590.63
2019-05-07T12:19:17.746Z,596.25
2019-05-07T12:20:17.614Z,641.25
2019-05-07T12:21:21.122Z,697.50
2019-05-07T12:22:17.571Z,765.00
2019-05-07T12:23:17.550Z,821.25
2019-05-07T12:24:17.529Z,888.75
2019-05-07T12:25:17.507Z,2941.88
2019-05-07T12:26:17.488Z,1906.88
2019-05-07T12:27:17.464Z,2947.50
2019-05-07T12:28:17.441Z,1080.00
2019-05-07T12:29:17.422Z,2205.00
2019-05-07T12:30:17.397Z,2919.38
2019-05-07T12:31:17.376Z,2407.50
2019-05-07T12:32:17.355Z,995.63
2019-05-07T12:33:17.333Z,939.38
2019-05-07T12:34:17.313Z,911.25
2019-05-07T12:35:17.291Z,2761.88